»·PEaware :: WAT380 KOAK-KLAX

WAT380 :: KOAK-KLAX

FLIGHT INFORMATION

Flight Status: Arrived
Operator:
Walker Air Transport
More flights by this operator :: More flights under this callsign
Pilot: Spencer M. (27733)
Aircraft: ECLIPSE 500
(EA50)
More flights by this aircraft type
Origin: KOAK Metro Oakland Intl
United States
Destination: KLAX Los Angeles Intl
United States
More flights between these airports :: More routes between these airports
Route: +SKYL1 AVE MUPTT BAYST BAYST1
File this flight plan on PilotEdge
Remarks:
Altitude:
(Current/Filed)
23,000ft
Speed:
(Current/Filed)
310kts
Departed: 17-Oct-20 06:13 PM
Arrived: 17-Oct-20 07:35 PM
Distance/Time
Traveled:
293nm/1:22
Distance/Time
To Go:
Arrived

Flight Plot

Page will automatically refresh every two minutes.

Flight plan parsing failed; only flown route is shown


Map Options




Map Legend


Flown Route
Filed Route
Departure Airport
Arrival Airport
Navaid (VOR, NDB)
Fix

Horizontal Profiles

Position Reports

Time Latitude Longitude Heading Altitude Ground
Speed
17-Oct-20 17:50 37.730415 -122.213244 307 8ft 0kts
17-Oct-20 17:50 37.730415 -122.213244 307 8ft 0kts
17-Oct-20 17:52 37.730415 -122.213244 307 8ft 0kts
17-Oct-20 17:53 37.730415 -122.213244 307 8ft 0kts
17-Oct-20 17:54 37.730415 -122.213244 307 8ft 0kts
17-Oct-20 17:55 37.730415 -122.213244 307 8ft 0kts
17-Oct-20 17:55 37.730415 -122.213244 307 8ft 0kts
17-Oct-20 17:57 37.730415 -122.213244 307 8ft 0kts
17-Oct-20 17:57 37.730415 -122.213244 307 8ft 0kts
17-Oct-20 17:58 37.730415 -122.213244 307 8ft 0kts
17-Oct-20 17:59 37.730415 -122.213244 307 8ft 0kts
17-Oct-20 18:00 37.730415 -122.213244 307 8ft 0kts
17-Oct-20 18:01 37.730415 -122.213244 307 8ft 0kts
17-Oct-20 18:02 37.730415 -122.213244 307 8ft 0kts
17-Oct-20 18:03 37.730415 -122.213244 307 8ft 0kts
17-Oct-20 18:04 37.730443 -122.213291 305 8ft 1kts
17-Oct-20 18:05 37.729397 -122.213824 148 8ft 6kts
17-Oct-20 18:06 37.727875 -122.210918 112 8ft 14kts
17-Oct-20 18:07 37.726455 -122.206524 112 8ft 8kts
17-Oct-20 18:08 37.726278 -122.205968 112 8ft 7kts
17-Oct-20 18:09 37.725592 -122.204489 181 8ft 0kts
17-Oct-20 18:10 37.725592 -122.204489 181 8ft 0kts
17-Oct-20 18:11 37.725451 -122.204536 199 8ft 4kts
17-Oct-20 18:12 37.728556 -122.216230 292 8ft 107kts
17-Oct-20 18:13 37.744419 -122.263407 292 1212ft 174kts
17-Oct-20 18:14 37.746606 -122.322978 217 2930ft 206kts
17-Oct-20 18:15 37.692795 -122.363892 213 4454ft 242kts
17-Oct-20 18:16 37.628413 -122.399260 205 5955ft 262kts
17-Oct-20 18:17 37.561099 -122.435755 205 7631ft 264kts
17-Oct-20 18:18 37.492571 -122.463901 164 9320ft 265kts
17-Oct-20 18:19 37.448794 -122.393792 120 11026ft 258kts
17-Oct-20 18:20 37.411085 -122.318372 120 12723ft 251kts
17-Oct-20 18:21 37.369531 -122.250045 130 14419ft 243kts
17-Oct-20 18:22 37.325019 -122.189260 130 16114ft 230kts
17-Oct-20 18:23 37.283386 -122.132551 129 17750ft 214kts
17-Oct-20 18:24 37.243109 -122.077759 129 19054ft 214kts
17-Oct-20 18:25 37.202907 -122.023183 129 20359ft 212kts
17-Oct-20 18:26 37.163374 -121.969619 128 21660ft 206kts
17-Oct-20 18:27 37.125413 -121.918278 128 22942ft 196kts
17-Oct-20 18:28 37.083612 -121.861639 129 23007ft 249kts
17-Oct-20 18:29 37.032452 -121.792670 130 23004ft 289kts
17-Oct-20 18:30 36.975276 -121.715799 131 23003ft 314kts
17-Oct-20 18:31 36.914249 -121.633979 131 22997ft 329kts
17-Oct-20 18:32 36.850694 -121.548959 131 22987ft 338kts
17-Oct-20 18:33 36.786226 -121.462925 131 22982ft 342kts
17-Oct-20 18:34 36.720876 -121.375934 131 22984ft 345kts
17-Oct-20 18:35 36.655249 -121.288812 131 23006ft 345kts
17-Oct-20 18:36 36.589386 -121.201612 131 23011ft 346kts
17-Oct-20 18:37 36.523317 -121.114361 132 23013ft 347kts
17-Oct-20 18:38 36.457186 -121.027271 132 23012ft 347kts
17-Oct-20 18:39 36.390775 -120.940044 132 23009ft 347kts
17-Oct-20 18:40 36.324437 -120.853145 132 23009ft 347kts
17-Oct-20 18:41 36.257981 -120.766318 132 23009ft 347kts
17-Oct-20 18:42 36.191636 -120.679869 132 23009ft 347kts
17-Oct-20 18:43 36.125017 -120.593293 132 23009ft 347kts
17-Oct-20 18:44 36.058496 -120.507060 132 23010ft 347kts
17-Oct-20 18:45 35.991957 -120.421037 132 23010ft 347kts
17-Oct-20 18:46 35.925135 -120.334878 132 23010ft 347kts
17-Oct-20 18:47 35.858270 -120.248883 132 23008ft 347kts
17-Oct-20 18:48 35.791485 -120.163217 132 23008ft 347kts
17-Oct-20 18:49 35.724657 -120.077714 132 23008ft 347kts
17-Oct-20 18:50 35.657587 -119.992124 132 23008ft 347kts
17-Oct-20 18:51 35.576977 -119.927216 148 23008ft 348kts
17-Oct-20 18:52 35.494238 -119.866695 148 23010ft 345kts
17-Oct-20 18:53 35.412070 -119.806706 148 23013ft 343kts
17-Oct-20 18:54 35.330317 -119.747156 148 23012ft 343kts
17-Oct-20 18:55 35.248225 -119.687502 148 22994ft 343kts
17-Oct-20 18:56 35.166464 -119.628228 148 22826ft 340kts
17-Oct-20 18:57 35.088092 -119.571540 148 21874ft 319kts
17-Oct-20 18:58 35.012091 -119.516715 148 21013ft 316kts
17-Oct-20 18:59 34.938232 -119.463390 151 19966ft 301kts
17-Oct-20 19:00 34.865710 -119.411382 151 19133ft 306kts
17-Oct-20 19:01 34.791859 -119.358456 151 18349ft 310kts
17-Oct-20 19:02 34.719566 -119.301394 146 17648ft 311kts
17-Oct-20 19:03 34.649699 -119.239788 145 16933ft 310kts
17-Oct-20 19:04 34.580022 -119.178366 145 16128ft 309kts
17-Oct-20 19:05 34.510868 -119.117514 145 15328ft 308kts
17-Oct-20 19:06 34.441510 -119.056605 145 14525ft 307kts
17-Oct-20 19:07 34.372526 -118.996141 145 13726ft 307kts
17-Oct-20 19:08 34.305026 -118.937094 145 12972ft 278kts
17-Oct-20 19:09 34.245752 -118.884862 143 12970ft 255kts
17-Oct-20 19:10 34.190174 -118.833853 143 12062ft 245kts
17-Oct-20 19:11 34.142415 -118.786176 138 11970ft 202kts
17-Oct-20 19:12 34.100350 -118.740381 138 10878ft 206kts
17-Oct-20 19:13 34.057936 -118.694313 139 9686ft 204kts
17-Oct-20 19:14 34.027563 -118.642823 95 8959ft 181kts
17-Oct-20 19:15 34.022011 -118.582949 95 8190ft 175kts
17-Oct-20 19:16 34.016620 -118.525366 95 7709ft 180kts
17-Oct-20 19:17 34.010828 -118.463783 96 7080ft 181kts
17-Oct-20 19:18 33.987335 -118.413160 123 6976ft 167kts
17-Oct-20 19:19 33.963342 -118.367226 123 7005ft 165kts
17-Oct-20 19:20 33.937833 -118.318445 123 7000ft 177kts
17-Oct-20 19:21 33.920915 -118.259433 107 6142ft 192kts
17-Oct-20 19:22 33.907219 -118.202929 107 5993ft 163kts
17-Oct-20 19:23 33.907826 -118.147110 83 5278ft 178kts
17-Oct-20 19:24 33.914649 -118.089798 82 4996ft 165kts
17-Oct-20 19:25 33.944613 -118.085698 283 5005ft 144kts
17-Oct-20 19:26 33.954565 -118.135603 281 4094ft 158kts
17-Oct-20 19:27 33.956664 -118.187592 259 3003ft 155kts
17-Oct-20 19:28 33.952033 -118.237188 261 2190ft 123kts
17-Oct-20 19:29 33.948082 -118.272986 261 1717ft 102kts
17-Oct-20 19:31 33.944827 -118.307286 262 1366ft 100kts
17-Oct-20 19:32 33.941700 -118.339553 262 858ft 93kts
17-Oct-20 19:33 33.938654 -118.369445 262 364ft 88kts
17-Oct-20 19:34 33.935892 -118.396178 262 128ft 58kts
17-Oct-20 19:35 33.932979 -118.403916 154 128ft 6kts

Navigation Log

Ident Type
Flight plan parsing failed, navigation log unavailable